createdAt,value
2018-08-30T00:00:00.442Z,31.6
2018-08-30T00:01:02.876Z,31.7
2018-08-30T00:02:05.318Z,31.7
2018-08-30T00:03:07.748Z,31.7
2018-08-30T00:04:10.178Z,31.7
2018-08-30T00:05:12.606Z,31.7
2018-08-30T00:06:14.779Z,31.7
2018-08-30T00:07:16.943Z,31.7
2018-08-30T00:08:19.382Z,31.7
2018-08-30T00:09:21.821Z,31.7
2018-08-30T00:10:24.261Z,31.7
2018-08-30T00:11:26.696Z,31.7
2018-08-30T00:12:29.141Z,31.7
2018-08-30T00:13:31.585Z,31.7
2018-08-30T00:14:34.022Z,31.7
2018-08-30T00:15:36.196Z,31.7
2018-08-30T00:16:38.351Z,31.7
2018-08-30T00:17:40.776Z,31.7
2018-08-30T00:18:43.202Z,31.8
2018-08-30T00:19:45.630Z,31.8
2018-08-30T00:20:48.078Z,31.8
2018-08-30T00:21:50.524Z,31.8
2018-08-30T00:22:52.957Z,31.8
2018-08-30T00:23:55.132Z,31.8
2018-08-30T00:24:57.564Z,31.8
2018-08-30T00:26:00.009Z,31.8
2018-08-30T00:27:02.175Z,31.8
2018-08-30T00:28:04.350Z,31.8
2018-08-30T00:29:06.777Z,31.8
2018-08-30T00:30:09.203Z,31.8
2018-08-30T00:31:11.636Z,31.8
2018-08-30T00:32:14.077Z,31.8
2018-08-30T00:33:16.521Z,31.8
2018-08-30T00:34:18.960Z,31.8
2018-08-30T00:35:21.413Z,31.9
2018-08-30T00:36:23.639Z,31.9
2018-08-30T00:37:26.087Z,31.9
2018-08-30T00:38:28.520Z,31.9
2018-08-30T00:39:30.968Z,31.9
2018-08-30T00:40:33.145Z,31.9
2018-08-30T00:41:35.576Z,31.9
2018-08-30T00:42:38.017Z,31.9
2018-08-30T00:43:40.474Z,31.9
2018-08-30T00:44:42.628Z,31.9
2018-08-30T00:45:45.068Z,31.9
2018-08-30T00:46:47.226Z,31.9
2018-08-30T00:47:49.674Z,31.9
2018-08-30T00:48:51.843Z,31.9
2018-08-30T00:49:54.316Z,31.9
2018-08-30T00:50:56.758Z,31.9
2018-08-30T00:51:59.225Z,31.9
2018-08-30T00:53:01.428Z,31.9
2018-08-30T00:54:03.861Z,31.9
2018-08-30T00:55:06.284Z,31.9
2018-08-30T00:56:08.429Z,31.9
2018-08-30T00:57:10.863Z,31.9
2018-08-30T00:58:13.296Z,31.9
2018-08-30T00:59:15.723Z,31.9
2018-08-30T01:00:18.167Z,31.9
2018-08-30T01:01:20.615Z,31.9
2018-08-30T01:02:23.045Z,31.9
2018-08-30T01:03:25.467Z,31.9
2018-08-30T01:04:27.904Z,32
2018-08-30T01:05:30.343Z,31.9
2018-08-30T01:06:32.504Z,31.9
2018-08-30T01:07:34.955Z,31.9
2018-08-30T01:08:37.589Z,32
2018-08-30T01:09:40.023Z,31.9
2018-08-30T01:10:41.906Z,31.9
2018-08-30T01:11:44.065Z,32
2018-08-30T01:12:46.046Z,32
2018-08-30T01:13:48.491Z,32
2018-08-30T01:14:50.920Z,32
2018-08-30T01:15:53.363Z,32
2018-08-30T01:16:55.803Z,32
2018-08-30T01:17:58.249Z,32
2018-08-30T01:19:00.701Z,32
2018-08-30T01:20:03.151Z,32
2018-08-30T01:21:05.317Z,32
2018-08-30T01:22:07.768Z,32
2018-08-30T01:23:09.900Z,32
2018-08-30T01:24:12.344Z,32
2018-08-30T01:25:14.765Z,32
2018-08-30T01:26:17.215Z,32
2018-08-30T01:27:19.657Z,32
2018-08-30T01:28:21.832Z,32
2018-08-30T01:29:24.263Z,32
2018-08-30T01:30:26.436Z,32
2018-08-30T01:31:43.539Z,32
2018-08-30T01:32:45.992Z,32
2018-08-30T01:33:48.437Z,32
2018-08-30T01:34:50.883Z,32
2018-08-30T01:35:53.337Z,32
2018-08-30T01:36:55.803Z,32
2018-08-30T01:37:57.947Z,32
2018-08-30T01:39:00.397Z,32
2018-08-30T01:40:02.846Z,32
2018-08-30T01:41:05.275Z,32
2018-08-30T01:42:07.748Z,32
2018-08-30T01:43:10.240Z,32
2018-08-30T01:44:12.664Z,32
2018-08-30T01:45:15.108Z,32
2018-08-30T01:46:17.294Z,32
2018-08-30T01:47:19.716Z,32
2018-08-30T01:48:21.867Z,32
2018-08-30T01:49:24.006Z,32
2018-08-30T01:50:26.447Z,32
2018-08-30T01:51:28.899Z,32
2018-08-30T01:52:31.318Z,32
2018-08-30T01:53:33.752Z,32
2018-08-30T01:54:36.181Z,32
2018-08-30T01:55:38.664Z,32
2018-08-30T01:56:41.104Z,32
2018-08-30T01:57:43.545Z,32
2018-08-30T01:58:45.991Z,32
2018-08-30T01:59:48.415Z,32
2018-08-30T02:00:50.867Z,32.1
2018-08-30T02:01:53.317Z,32.1
2018-08-30T02:02:55.766Z,32.1
2018-08-30T02:03:58.205Z,32.1
2018-08-30T02:05:00.655Z,32.1
2018-08-30T02:06:03.106Z,32.1
2018-08-30T02:07:05.547Z,32.1
2018-08-30T02:08:07.986Z,32.1
2018-08-30T02:09:10.458Z,32.1
2018-08-30T02:10:12.894Z,32.1
2018-08-30T02:11:15.325Z,32.1
2018-08-30T02:12:17.758Z,32.1
2018-08-30T02:13:20.197Z,32.1
2018-08-30T02:14:22.654Z,32.1
2018-08-30T02:15:25.103Z,32.1
2018-08-30T02:16:27.542Z,32.1
2018-08-30T02:17:29.984Z,32.1
2018-08-30T02:18:32.415Z,32.1
2018-08-30T02:19:34.845Z,32.1
2018-08-30T02:20:37.301Z,32.1
2018-08-30T02:21:39.752Z,32.1
2018-08-30T02:22:41.624Z,32.1
2018-08-30T02:23:44.090Z,32.1
2018-08-30T02:24:46.538Z,32.1
2018-08-30T02:25:48.964Z,32.1
2018-08-30T02:26:51.391Z,32.1
2018-08-30T02:27:53.561Z,32.1
2018-08-30T02:28:55.728Z,32.1
2018-08-30T02:29:58.184Z,32.1
2018-08-30T02:31:00.613Z,32.1
2018-08-30T02:32:03.052Z,32.1
2018-08-30T02:33:05.484Z,32.1
2018-08-30T02:34:07.918Z,32.1
2018-08-30T02:35:10.366Z,32.1
2018-08-30T02:36:12.802Z,32.1
2018-08-30T02:37:15.229Z,32.1
2018-08-30T02:38:17.390Z,32.1
2018-08-30T02:39:19.853Z,32.1
2018-08-30T02:40:22.323Z,32.1
2018-08-30T02:41:24.757Z,32.1
2018-08-30T02:42:27.207Z,32.1
2018-08-30T02:43:29.647Z,32.1
2018-08-30T02:44:32.076Z,32.1
2018-08-30T02:45:34.233Z,32.1
2018-08-30T02:46:36.684Z,32.1
2018-08-30T02:47:39.113Z,32.1
2018-08-30T02:48:41.547Z,32.1
2018-08-30T02:49:43.981Z,32.1
2018-08-30T02:50:46.408Z,32.1
2018-08-30T02:51:48.857Z,32.1
2018-08-30T02:52:51.276Z,32.1
2018-08-30T02:53:53.706Z,32.1
2018-08-30T02:54:56.142Z,32.1
2018-08-30T02:55:58.574Z,32.1
2018-08-30T02:57:01.020Z,32.1
2018-08-30T02:58:03.451Z,32.1
2018-08-30T02:59:05.881Z,32.1
2018-08-30T03:00:08.068Z,32.1
2018-08-30T03:01:10.506Z,32.1
2018-08-30T03:02:12.935Z,32.1
2018-08-30T03:03:15.374Z,32.1
2018-08-30T03:04:17.803Z,32.1
2018-08-30T03:05:20.233Z,32.1
2018-08-30T03:06:22.665Z,32.1
2018-08-30T03:07:25.101Z,32.1
2018-08-30T03:08:27.532Z,32.1
2018-08-30T03:09:29.957Z,32.1
2018-08-30T03:10:32.384Z,32
2018-08-30T03:11:34.825Z,32
2018-08-30T03:12:37.002Z,32
2018-08-30T03:13:39.177Z,32
2018-08-30T03:14:41.098Z,32
2018-08-30T03:15:43.526Z,32
2018-08-30T03:16:45.961Z,32
2018-08-30T03:17:48.129Z,32
2018-08-30T03:18:50.555Z,32
2018-08-30T03:19:52.989Z,32
2018-08-30T03:20:54.883Z,31.9
2018-08-30T03:21:57.324Z,31.9
2018-08-30T03:22:59.754Z,31.9
2018-08-30T03:24:02.188Z,31.9
2018-08-30T03:25:04.345Z,31.9
2018-08-30T03:26:06.781Z,31.9
2018-08-30T03:27:09.228Z,31.9
2018-08-30T03:28:11.667Z,31.9
2018-08-30T03:29:14.105Z,31.9
2018-08-30T03:30:16.980Z,31.9
2018-08-30T03:31:19.899Z,31.8
2018-08-30T03:32:22.537Z,31.8
2018-08-30T03:33:24.969Z,31.8
2018-08-30T03:34:27.398Z,31.8
2018-08-30T03:35:29.833Z,31.8
2018-08-30T03:36:32.283Z,31.8
2018-08-30T03:37:34.713Z,31.8
2018-08-30T03:38:37.142Z,31.8
2018-08-30T03:39:39.575Z,31.8
2018-08-30T03:40:42.009Z,31.8
2018-08-30T03:41:44.447Z,31.8
2018-08-30T03:42:46.883Z,31.8
2018-08-30T03:43:49.513Z,31.8
2018-08-30T03:44:51.684Z,31.7
2018-08-30T03:45:54.113Z,31.7
2018-08-30T03:46:56.670Z,31.7
2018-08-30T03:47:59.055Z,31.7
2018-08-30T03:49:01.483Z,31.7
2018-08-30T03:50:03.644Z,31.7
2018-08-30T03:51:06.093Z,31.7
2018-08-30T03:52:08.540Z,31.7
2018-08-30T03:53:10.971Z,31.7
2018-08-30T03:54:13.414Z,31.7
2018-08-30T03:55:15.779Z,31.7
2018-08-30T03:56:18.523Z,31.7
2018-08-30T03:57:20.992Z,31.7
2018-08-30T03:58:23.116Z,31.7
2018-08-30T03:59:25.549Z,31.6
2018-08-30T04:00:27.994Z,31.6
2018-08-30T04:01:30.425Z,31.6
2018-08-30T04:02:32.867Z,31.6
2018-08-30T04:03:35.308Z,31.6
2018-08-30T04:04:37.483Z,31.6
2018-08-30T04:05:39.929Z,31.6
2018-08-30T04:06:42.366Z,31.6
2018-08-30T04:07:44.803Z,31.6
2018-08-30T04:08:47.240Z,31.6
2018-08-30T04:09:49.760Z,31.6
2018-08-30T04:10:52.228Z,31.6
2018-08-30T04:11:54.658Z,31.6
2018-08-30T04:12:57.089Z,31.6
2018-08-30T04:13:59.527Z,31.6
2018-08-30T04:15:01.961Z,31.6
2018-08-30T04:16:04.387Z,31.6
2018-08-30T04:17:06.822Z,31.6
2018-08-30T04:18:09.262Z,31.6
2018-08-30T04:19:11.695Z,31.6
2018-08-30T04:20:14.134Z,31.6
2018-08-30T04:21:16.564Z,31.6
2018-08-30T04:22:19.009Z,31.6
2018-08-30T04:23:21.448Z,31.6
2018-08-30T04:24:23.887Z,31.6
2018-08-30T04:25:26.326Z,31.6
2018-08-30T04:26:28.766Z,31.5
2018-08-30T04:27:31.197Z,31.5
2018-08-30T04:28:33.624Z,31.5
2018-08-30T04:29:36.065Z,31.6
2018-08-30T04:30:38.516Z,31.5
2018-08-30T04:31:40.948Z,31.6
2018-08-30T04:32:43.402Z,31.5
2018-08-30T04:33:45.603Z,31.5
2018-08-30T04:34:48.036Z,31.5
2018-08-30T04:35:50.485Z,31.5
2018-08-30T04:36:52.925Z,31.5
2018-08-30T04:37:55.363Z,31.5
2018-08-30T04:38:57.795Z,31.5
2018-08-30T04:39:59.948Z,31.5
2018-08-30T04:41:02.397Z,31.5
2018-08-30T04:42:04.846Z,31.5
2018-08-30T04:43:07.284Z,31.5
2018-08-30T04:44:09.736Z,31.5
2018-08-30T04:45:12.173Z,31.5
2018-08-30T04:46:14.648Z,31.5
2018-08-30T04:47:17.087Z,31.5
2018-08-30T04:48:19.239Z,31.5
2018-08-30T04:49:21.663Z,31.5
2018-08-30T04:50:24.206Z,31.5
2018-08-30T04:51:26.726Z,31.5
2018-08-30T04:52:29.161Z,31.5
2018-08-30T04:53:31.595Z,31.5
2018-08-30T04:54:33.793Z,31.5
2018-08-30T04:55:36.238Z,31.5
2018-08-30T04:56:38.666Z,31.5
2018-08-30T04:57:41.089Z,31.5
2018-08-30T04:58:43.257Z,31.5
2018-08-30T04:59:45.693Z,31.5
2018-08-30T05:00:48.157Z,31.5
2018-08-30T05:01:51.165Z,31.5
2018-08-30T05:02:53.947Z,31.5
2018-08-30T05:03:56.386Z,31.5
2018-08-30T05:04:58.546Z,31.5
2018-08-30T05:06:00.988Z,31.5
2018-08-30T05:07:03.424Z,31.5
2018-08-30T05:08:05.872Z,31.5
2018-08-30T05:09:08.308Z,31.5
2018-08-30T05:10:11.162Z,31.5
2018-08-30T05:11:13.854Z,31.5
2018-08-30T05:12:16.284Z,31.5
2018-08-30T05:13:18.727Z,31.5
2018-08-30T05:14:21.166Z,31.5
2018-08-30T05:15:23.594Z,31.5
2018-08-30T05:16:25.836Z,31.5
2018-08-30T05:17:28.357Z,31.5
2018-08-30T05:18:30.787Z,31.5
2018-08-30T05:19:32.943Z,31.5
2018-08-30T05:20:35.385Z,31.5
2018-08-30T05:21:37.537Z,31.5
2018-08-30T05:22:39.987Z,31.5
2018-08-30T05:23:42.416Z,31.5
2018-08-30T05:24:44.847Z,31.5
2018-08-30T05:25:47.311Z,31.5
2018-08-30T05:26:49.728Z,31.5
2018-08-30T05:27:52.163Z,31.5
2018-08-30T05:28:54.586Z,31.5
2018-08-30T05:29:57.492Z,31.5
2018-08-30T05:31:00.264Z,31.5
2018-08-30T05:32:02.701Z,31.5
2018-08-30T05:33:05.134Z,31.5
2018-08-30T05:34:07.572Z,31.5
2018-08-30T05:35:10.002Z,31.5
2018-08-30T05:36:12.430Z,31.5
2018-08-30T05:37:14.872Z,31.5
2018-08-30T05:38:17.312Z,31.5
2018-08-30T05:39:19.753Z,31.5
2018-08-30T05:40:21.900Z,31.5
2018-08-30T05:41:24.326Z,31.5
2018-08-30T05:42:26.768Z,31.5
2018-08-30T05:43:29.228Z,31.5
2018-08-30T05:44:31.787Z,31.5
2018-08-30T05:45:33.945Z,31.5
2018-08-30T05:46:36.376Z,31.5
2018-08-30T05:47:38.798Z,31.5
2018-08-30T05:48:41.232Z,31.5
2018-08-30T05:49:43.365Z,31.5
2018-08-30T05:50:45.803Z,31.5
2018-08-30T05:51:48.255Z,31.5
2018-08-30T05:52:50.694Z,31.5
2018-08-30T05:53:53.130Z,31.5
2018-08-30T05:54:55.573Z,31.5
2018-08-30T05:55:58.009Z,31.5
2018-08-30T05:57:00.766Z,31.4
2018-08-30T05:58:03.591Z,31.5
2018-08-30T05:59:06.028Z,31.4
2018-08-30T06:00:08.462Z,31.4
2018-08-30T06:01:10.630Z,31.4
2018-08-30T06:02:13.099Z,31.4
2018-08-30T06:03:15.560Z,31.4
2018-08-30T06:04:17.701Z,31.4
2018-08-30T06:05:20.148Z,31.4
2018-08-30T06:06:22.610Z,31.4
2018-08-30T06:07:25.370Z,31.4
2018-08-30T06:08:28.622Z,31.4
2018-08-30T06:09:30.818Z,31.4
2018-08-30T06:10:33.257Z,31.4
2018-08-30T06:11:35.691Z,31.4
2018-08-30T06:12:38.136Z,31.4
2018-08-30T06:13:40.572Z,31.4
2018-08-30T06:14:42.747Z,31.4
2018-08-30T06:15:45.177Z,31.4
2018-08-30T06:16:47.621Z,31.4
2018-08-30T06:17:50.051Z,31.4
2018-08-30T06:18:52.187Z,31.4
2018-08-30T06:19:54.630Z,31.4
2018-08-30T06:20:56.782Z,31.4
2018-08-30T06:21:59.217Z,31.4
2018-08-30T06:23:01.653Z,31.4
2018-08-30T06:24:04.087Z,31.4
2018-08-30T06:25:06.529Z,31.4
2018-08-30T06:26:08.696Z,31.4
2018-08-30T06:27:11.132Z,31.4
2018-08-30T06:28:13.567Z,31.4
2018-08-30T06:29:15.967Z,31.4
2018-08-30T06:30:18.565Z,31.4
2018-08-30T06:31:21.008Z,31.4
2018-08-30T06:32:23.456Z,31.4
2018-08-30T06:33:25.914Z,31.4
2018-08-30T06:34:28.414Z,31.4
2018-08-30T06:35:30.840Z,31.4
2018-08-30T06:36:33.290Z,31.4
2018-08-30T06:37:35.713Z,31.4
2018-08-30T06:38:38.274Z,31.4
2018-08-30T06:39:40.791Z,31.4
2018-08-30T06:40:43.219Z,31.4
2018-08-30T06:41:45.395Z,31.4
2018-08-30T06:42:47.572Z,31.4
2018-08-30T06:43:49.745Z,31.4
2018-08-30T06:44:52.181Z,31.4
2018-08-30T06:45:54.621Z,31.4
2018-08-30T06:46:57.076Z,31.4
2018-08-30T06:47:59.516Z,31.4
2018-08-30T06:49:02.253Z,31.4
2018-08-30T06:50:04.547Z,31.4
2018-08-30T06:51:06.990Z,31.4
2018-08-30T06:52:09.442Z,31.4
2018-08-30T06:53:11.584Z,31.4
2018-08-30T06:54:14.027Z,31.4
2018-08-30T06:55:16.486Z,31.4
2018-08-30T06:56:19.186Z,31.4
2018-08-30T06:57:21.762Z,31.4
2018-08-30T06:58:24.322Z,31.4
2018-08-30T06:59:26.906Z,31.4
2018-08-30T07:00:29.073Z,31.4
2018-08-30T07:01:31.504Z,31.4
2018-08-30T07:02:33.945Z,31.4
2018-08-30T07:03:36.380Z,31.4
2018-08-30T07:04:38.818Z,31.4
2018-08-30T07:05:41.264Z,31.4
2018-08-30T07:06:43.716Z,31.4
2018-08-30T07:07:46.154Z,31.4
2018-08-30T07:08:48.596Z,31.4
2018-08-30T07:09:50.760Z,31.4
2018-08-30T07:10:53.190Z,31.4
2018-08-30T07:11:55.645Z,31.4
2018-08-30T07:12:58.078Z,31.4
2018-08-30T07:14:00.511Z,31.4
2018-08-30T07:15:03.208Z,31.4
2018-08-30T07:16:05.962Z,31.4
2018-08-30T07:17:08.386Z,31.4
2018-08-30T07:18:10.815Z,31.4
2018-08-30T07:19:12.972Z,31.4
2018-08-30T07:20:15.416Z,31.4
2018-08-30T07:21:17.880Z,31.4
2018-08-30T07:22:20.317Z,31.4
2018-08-30T07:23:22.762Z,31.4
2018-08-30T07:24:25.675Z,31.4
2018-08-30T07:25:28.468Z,31.4
2018-08-30T07:26:30.956Z,31.4
2018-08-30T07:27:33.382Z,31.4
2018-08-30T07:28:36.061Z,31.4
2018-08-30T07:29:38.698Z,31.4
2018-08-30T07:30:41.141Z,31.4
2018-08-30T07:31:43.595Z,31.4
2018-08-30T07:32:46.150Z,31.3
2018-08-30T07:33:48.622Z,31.4
2018-08-30T07:34:51.642Z,31.3
2018-08-30T07:35:54.573Z,31.3
2018-08-30T07:36:57.032Z,31.3
2018-08-30T07:37:59.508Z,31.3
2018-08-30T07:39:01.983Z,31.3
2018-08-30T07:40:04.151Z,31.3
2018-08-30T07:41:06.600Z,31.3
2018-08-30T07:42:09.041Z,31.3
2018-08-30T07:43:11.208Z,31.3
2018-08-30T07:44:14.034Z,31.3
2018-08-30T07:45:16.916Z,31.3
2018-08-30T07:46:19.051Z,31.3
2018-08-30T07:47:22.028Z,31.3
2018-08-30T07:48:24.778Z,31.3
2018-08-30T07:49:27.224Z,31.3
2018-08-30T07:50:29.666Z,31.3
2018-08-30T07:51:32.101Z,31.3
2018-08-30T07:52:34.542Z,31.3
2018-08-30T07:53:36.976Z,31.3
2018-08-30T07:54:39.518Z,31.3
2018-08-30T07:55:42.137Z,31.3
2018-08-30T07:56:44.583Z,31.3
2018-08-30T07:57:47.039Z,31.3
2018-08-30T07:58:49.229Z,31.3
2018-08-30T07:59:51.924Z,31.3
2018-08-30T08:00:54.442Z,31.3
2018-08-30T08:01:56.899Z,31.3
2018-08-30T08:02:59.339Z,31.3
2018-08-30T08:04:01.508Z,31.3
2018-08-30T08:05:03.943Z,31.3
2018-08-30T08:06:06.444Z,31.3
2018-08-30T08:07:09.343Z,31.3
2018-08-30T08:08:11.647Z,31.3
2018-08-30T08:09:13.529Z,31.3
2018-08-30T08:10:15.997Z,31.3
2018-08-30T08:11:18.430Z,31.3
2018-08-30T08:12:20.905Z,31.3
2018-08-30T08:13:23.386Z,31.3
2018-08-30T08:14:25.848Z,31.3
2018-08-30T08:15:28.291Z,31.3
2018-08-30T08:16:30.476Z,31.3
2018-08-30T08:17:32.926Z,31.3
2018-08-30T08:18:35.119Z,31.3
2018-08-30T08:19:37.575Z,31.3
2018-08-30T08:20:40.047Z,31.3
2018-08-30T08:21:42.525Z,31.3
2018-08-30T08:22:44.968Z,31.3
2018-08-30T08:23:47.417Z,31.3
2018-08-30T08:24:49.975Z,31.3
2018-08-30T08:25:52.505Z,31.3
2018-08-30T08:26:54.986Z,31.3
2018-08-30T08:27:57.428Z,31.3
2018-08-30T08:28:59.866Z,31.3
2018-08-30T08:30:02.314Z,31.3
2018-08-30T08:31:04.765Z,31.3
2018-08-30T08:32:07.265Z,31.3
2018-08-30T08:33:09.715Z,31.3
2018-08-30T08:34:12.160Z,31.3
2018-08-30T08:35:14.356Z,31.3
2018-08-30T08:36:16.795Z,31.3
2018-08-30T08:37:19.243Z,31.3
2018-08-30T08:38:21.680Z,31.3
2018-08-30T08:39:24.133Z,31.3
2018-08-30T08:40:26.330Z,31.3
2018-08-30T08:41:28.777Z,31.3
2018-08-30T08:42:31.238Z,31.3
2018-08-30T08:43:33.686Z,31.3
2018-08-30T08:44:36.141Z,31.3
2018-08-30T08:45:38.598Z,31.3
2018-08-30T08:46:40.764Z,31.3
2018-08-30T08:47:43.334Z,31.3
2018-08-30T08:48:46.014Z,31.3
2018-08-30T08:49:48.442Z,31.3
2018-08-30T08:50:50.894Z,31.3
2018-08-30T08:51:53.326Z,31.3
2018-08-30T08:52:55.772Z,31.3
2018-08-30T08:53:57.920Z,31.3
2018-08-30T08:55:00.359Z,31.3
2018-08-30T08:56:02.809Z,31.3
2018-08-30T08:57:05.254Z,31.3
2018-08-30T08:58:07.432Z,31.3
2018-08-30T08:59:10.015Z,31.3
2018-08-30T09:00:12.600Z,31.3
2018-08-30T09:01:14.820Z,31.3
2018-08-30T09:02:17.380Z,31.3
2018-08-30T09:03:19.857Z,31.3
2018-08-30T09:04:22.296Z,31.3
2018-08-30T09:05:24.737Z,31.3
2018-08-30T09:06:27.177Z,31.3
2018-08-30T09:07:29.772Z,31.3
2018-08-30T09:08:31.955Z,31.3
2018-08-30T09:09:34.413Z,31.3
2018-08-30T09:10:36.843Z,31.3
2018-08-30T09:11:39.310Z,31.3
2018-08-30T09:12:41.740Z,31.3
2018-08-30T09:13:44.191Z,31.3
2018-08-30T09:14:46.624Z,31.3
2018-08-30T09:15:49.068Z,31.3
2018-08-30T09:16:51.506Z,31.3
2018-08-30T09:17:53.949Z,31.3
2018-08-30T09:18:56.371Z,31.3
2018-08-30T09:19:58.526Z,31.3
2018-08-30T09:21:00.692Z,31.3
2018-08-30T09:22:03.145Z,31.3
2018-08-30T09:23:05.516Z,31.3
2018-08-30T09:24:08.103Z,31.3
2018-08-30T09:25:10.537Z,31.3
2018-08-30T09:26:12.972Z,31.3
2018-08-30T09:27:15.771Z,31.3
2018-08-30T09:28:18.538Z,31.3
2018-08-30T09:29:20.972Z,31.2
2018-08-30T09:30:23.417Z,31.3
2018-08-30T09:31:25.845Z,31.3
2018-08-30T09:32:28.282Z,31.3
2018-08-30T09:33:30.714Z,31.2
2018-08-30T09:34:32.879Z,31.3
2018-08-30T09:35:35.314Z,31.2
2018-08-30T09:36:37.754Z,31.2
2018-08-30T09:37:40.209Z,31.3
2018-08-30T09:38:42.645Z,31.2
2018-08-30T09:39:45.082Z,31.2
2018-08-30T09:40:47.534Z,31.2
2018-08-30T09:41:49.961Z,31.3
2018-08-30T09:42:52.410Z,31.3
2018-08-30T09:43:55.179Z,31.3
2018-08-30T09:44:57.621Z,31.2
2018-08-30T09:45:59.809Z,31.3
2018-08-30T09:47:02.263Z,31.3
2018-08-30T09:48:04.709Z,31.2
2018-08-30T09:49:07.143Z,31.3
2018-08-30T09:50:09.573Z,31.3
2018-08-30T09:51:12.020Z,31.2
2018-08-30T09:52:14.193Z,31.3
2018-08-30T09:53:16.330Z,31.2
2018-08-30T09:54:18.756Z,31.2
2018-08-30T09:55:21.196Z,31.3
2018-08-30T09:56:23.363Z,31.3
2018-08-30T09:57:26.216Z,31.2
2018-08-30T09:58:28.993Z,31.3
2018-08-30T09:59:31.416Z,31.3
2018-08-30T10:00:33.850Z,31.3
2018-08-30T10:01:36.296Z,31.2
2018-08-30T10:02:38.746Z,31.2
2018-08-30T10:03:40.984Z,31.3
2018-08-30T10:04:43.736Z,31.3
2018-08-30T10:05:46.236Z,31.3
2018-08-30T10:06:48.660Z,31.3
2018-08-30T10:07:51.095Z,31.3
2018-08-30T10:08:53.526Z,31.3
2018-08-30T10:09:55.956Z,31.3
2018-08-30T10:10:58.388Z,31.3
2018-08-30T10:12:00.814Z,31.3
2018-08-30T10:13:02.997Z,31.3
2018-08-30T10:14:05.148Z,31.3
2018-08-30T10:15:07.579Z,31.3
2018-08-30T10:16:10.048Z,31.3
2018-08-30T10:17:12.514Z,31.2
2018-08-30T10:18:14.944Z,31.2
2018-08-30T10:19:17.405Z,31.2
2018-08-30T10:20:19.840Z,31.3
2018-08-30T10:21:22.419Z,31.3
2018-08-30T10:22:24.977Z,31.2
2018-08-30T10:23:27.429Z,31.2
2018-08-30T10:24:29.881Z,31.3
2018-08-30T10:25:32.757Z,31.2
2018-08-30T10:26:35.506Z,31.3
2018-08-30T10:27:37.949Z,31.2
2018-08-30T10:28:40.113Z,31.2
2018-08-30T10:29:42.556Z,31.2
2018-08-30T10:30:44.753Z,31.2
2018-08-30T10:31:47.198Z,31.2
2018-08-30T10:32:49.634Z,31.2
2018-08-30T10:33:52.061Z,31.2
2018-08-30T10:34:54.487Z,31.2
2018-08-30T10:35:56.946Z,31.2
2018-08-30T10:36:59.578Z,31.2
2018-08-30T10:38:02.118Z,31.2
2018-08-30T10:39:04.263Z,31.2
2018-08-30T10:40:06.425Z,31.2
2018-08-30T10:41:08.863Z,31.2
2018-08-30T10:42:11.297Z,31.2
2018-08-30T10:43:13.447Z,31.2
2018-08-30T10:44:15.902Z,31.2
2018-08-30T10:45:18.061Z,31.2
2018-08-30T10:46:20.497Z,31.2
2018-08-30T10:47:22.928Z,31.2
2018-08-30T10:48:25.397Z,31.2
2018-08-30T10:49:28.099Z,31.2
2018-08-30T10:50:30.826Z,31.2
2018-08-30T10:51:33.262Z,31.2
2018-08-30T10:52:35.712Z,31.2
2018-08-30T10:53:38.146Z,31.2
2018-08-30T10:54:40.326Z,31.2
2018-08-30T10:55:42.753Z,31.2
2018-08-30T10:56:45.186Z,31.2
2018-08-30T10:57:47.645Z,31.2
2018-08-30T10:58:50.089Z,31.2
2018-08-30T10:59:52.552Z,31.2
2018-08-30T11:00:54.990Z,31.2
2018-08-30T11:01:57.423Z,31.2
2018-08-30T11:02:59.870Z,31.2
2018-08-30T11:04:02.320Z,31.2
2018-08-30T11:05:04.493Z,31.2
2018-08-30T11:06:06.920Z,31.2
2018-08-30T11:07:09.425Z,31.2
2018-08-30T11:08:11.868Z,31.2
2018-08-30T11:09:14.352Z,31.2
2018-08-30T11:10:16.819Z,31.2
2018-08-30T11:11:19.272Z,31.2
2018-08-30T11:12:21.707Z,31.2
2018-08-30T11:13:24.298Z,31.2
2018-08-30T11:14:26.625Z,31.2
2018-08-30T11:15:28.789Z,31.2
2018-08-30T11:16:30.923Z,31.2
2018-08-30T11:17:33.375Z,31.2
2018-08-30T11:18:35.829Z,31.2
2018-08-30T11:19:38.302Z,31.2
2018-08-30T11:20:40.725Z,31.2
2018-08-30T11:21:43.370Z,31.2
2018-08-30T11:22:45.522Z,31.2
2018-08-30T11:23:48.048Z,31.2
2018-08-30T11:24:50.551Z,31.2
2018-08-30T11:25:52.710Z,31.2
2018-08-30T11:26:55.144Z,31.2
2018-08-30T11:27:57.315Z,31.2
2018-08-30T11:28:59.740Z,31.2
2018-08-30T11:30:02.206Z,31.2
2018-08-30T11:31:04.649Z,31.2
2018-08-30T11:32:07.081Z,31.2
2018-08-30T11:33:09.534Z,31.2
2018-08-30T11:34:11.970Z,31.2
2018-08-30T11:35:14.426Z,31.2
2018-08-30T11:36:16.880Z,31.2
2018-08-30T11:37:19.057Z,31.2
2018-08-30T11:38:21.501Z,31.2
2018-08-30T11:39:23.941Z,31.2
2018-08-30T11:40:26.374Z,31.2
2018-08-30T11:41:29.312Z,31.2
2018-08-30T11:42:32.221Z,31.2
2018-08-30T11:43:34.645Z,31.2
2018-08-30T11:44:36.845Z,31.3
2018-08-30T11:45:39.290Z,31.2
2018-08-30T11:46:41.435Z,31.3
2018-08-30T11:47:43.886Z,31.3
2018-08-30T11:48:46.045Z,31.3
2018-08-30T11:49:48.479Z,31.2
2018-08-30T11:51:05.650Z,31.3
2018-08-30T11:52:08.248Z,31.2
2018-08-30T11:53:10.795Z,31.2
2018-08-30T11:54:13.406Z,31.3
2018-08-30T11:55:16.106Z,31.3
2018-08-30T11:56:18.653Z,31.3
2018-08-30T11:57:21.233Z,31.2
2018-08-30T11:58:23.708Z,31.2
2018-08-30T11:59:26.163Z,31.2
2018-08-30T12:00:28.604Z,31.2
2018-08-30T12:01:31.062Z,31.3
2018-08-30T12:02:33.538Z,31.2
2018-08-30T12:03:35.981Z,31.2
2018-08-30T12:04:38.426Z,31.3
2018-08-30T12:05:40.882Z,31.2
2018-08-30T12:06:43.044Z,31.3
2018-08-30T12:07:45.579Z,31.3
2018-08-30T12:08:48.021Z,31.3
2018-08-30T12:09:50.188Z,31.3
2018-08-30T12:10:53.098Z,31.2
2018-08-30T12:11:55.895Z,31.3
2018-08-30T12:12:58.315Z,31.3
2018-08-30T12:14:00.748Z,31.3
2018-08-30T12:15:02.912Z,31.3
2018-08-30T12:16:05.369Z,31.3
2018-08-30T12:17:07.815Z,31.3
2018-08-30T12:18:10.811Z,31.3
2018-08-30T12:19:13.517Z,31.3
2018-08-30T12:20:15.885Z,31.3
2018-08-30T12:21:18.343Z,31.3
2018-08-30T12:22:20.782Z,31.3
2018-08-30T12:23:23.250Z,31.3
2018-08-30T12:24:25.498Z,31.3
2018-08-30T12:25:27.675Z,31.3
2018-08-30T12:26:30.162Z,31.3
2018-08-30T12:27:32.394Z,31.3
2018-08-30T12:28:35.095Z,31.3
2018-08-30T12:29:38.115Z,31.3
2018-08-30T12:30:40.582Z,31.3
2018-08-30T12:31:43.197Z,31.3
2018-08-30T12:32:45.781Z,31.3
2018-08-30T12:33:48.656Z,31.3
2018-08-30T12:34:51.603Z,31.3
2018-08-30T12:35:55.270Z,31.3
2018-08-30T12:36:58.027Z,31.3
2018-08-30T12:38:00.791Z,31.3
2018-08-30T12:39:03.304Z,31.3
2018-08-30T12:40:06.431Z,31.3
2018-08-30T12:41:09.885Z,31.3
2018-08-30T12:42:12.587Z,31.3
2018-08-30T12:43:15.573Z,31.3
2018-08-30T12:44:17.889Z,31.3
2018-08-30T12:45:20.635Z,31.3
2018-08-30T12:46:23.742Z,31.3
2018-08-30T12:47:25.830Z,31.3
2018-08-30T12:48:28.298Z,31.2
2018-08-30T12:49:30.831Z,31.3
2018-08-30T12:50:33.997Z,31.2
2018-08-30T12:51:38.674Z,31.2
2018-08-30T12:52:42.913Z,31.2
2018-08-30T12:53:46.509Z,31.2
2018-08-30T12:54:49.913Z,31.2
2018-08-30T12:55:53.350Z,31.2
2018-08-30T12:56:56.608Z,31.2
2018-08-30T12:58:00.165Z,31.2
2018-08-30T12:59:03.685Z,31.2
2018-08-30T13:00:07.580Z,31.2
2018-08-30T13:01:11.642Z,31.2
2018-08-30T13:02:15.371Z,31.2
2018-08-30T13:03:19.428Z,31.2
2018-08-30T13:04:23.548Z,31.2
2018-08-30T13:05:28.648Z,31.2
2018-08-30T13:06:33.499Z,31.2
2018-08-30T13:07:37.621Z,31.2
2018-08-30T13:08:42.643Z,31.2
2018-08-30T13:09:47.549Z,31.2
2018-08-30T13:10:52.685Z,31.2
2018-08-30T13:11:58.693Z,31.2
2018-08-30T13:13:01.991Z,31.2
2018-08-30T13:14:06.587Z,31.2
2018-08-30T13:15:12.015Z,31.2
2018-08-30T13:16:17.258Z,31.2
2018-08-30T13:17:21.011Z,31.2
2018-08-30T13:18:25.759Z,31.2
2018-08-30T13:19:30.979Z,31.2
2018-08-30T13:20:36.701Z,31.2
2018-08-30T13:21:41.331Z,31.2
2018-08-30T13:22:46.381Z,31.2
2018-08-30T13:23:51.445Z,31.2
2018-08-30T13:24:56.395Z,31.2
2018-08-30T13:26:01.856Z,31.2
2018-08-30T13:27:07.269Z,31.2
2018-08-30T13:28:12.366Z,31.2
2018-08-30T13:29:17.401Z,31.2
2018-08-30T13:30:22.138Z,31.2
2018-08-30T13:31:27.395Z,31.2
2018-08-30T13:32:33.525Z,31.2
2018-08-30T13:33:39.407Z,31.2
2018-08-30T13:34:44.660Z,31.2
2018-08-30T13:35:51.112Z,31.2
2018-08-30T13:36:57.364Z,31.2
2018-08-30T13:38:02.612Z,31.2
2018-08-30T13:39:08.984Z,31.2
2018-08-30T13:40:15.534Z,31.2
2018-08-30T13:41:22.742Z,31.2
2018-08-30T13:42:28.619Z,31.2
2018-08-30T13:43:34.624Z,31.2
2018-08-30T13:44:41.558Z,31.2
2018-08-30T13:45:47.003Z,31.2
2018-08-30T13:46:52.804Z,31.2
2018-08-30T13:47:57.981Z,31.2
2018-08-30T13:49:04.258Z,31.2
2018-08-30T13:50:10.817Z,31.2
2018-08-30T13:51:17.160Z,31.2
2018-08-30T13:52:23.673Z,31.2
2018-08-30T13:53:29.768Z,31.2
2018-08-30T13:54:36.018Z,31.2
2018-08-30T13:55:42.004Z,31.2
2018-08-30T13:56:48.315Z,31.2
2018-08-30T13:57:55.219Z,31.2